Time;durP1;ratioP1;P1;durP2;ratioP2;P2;SDS_P1;SDS_P2;PMS_P1;PMS_P2;Temp;Humidity;BMP_temperature;BMP_pressure;BME280_temperature;BME280_humidity;BME280_pressure;Samples;Min_cycle;Max_cycle;Signal;HPM_P1;HPM_P2
2023/10/17 00:01:47;;;;;;;;;;;;;;;;;;5012813;28;19926;-77
2023/10/17 00:06:58;;;;;;;;;;;;;;;;;;5009403;28;20388;-77
2023/10/17 00:09:25;;;;;;;;;;;;;;;;;;5013766;28;19933;-78
2023/10/17 00:12:03;;;;;;;;;;;;;;;;;;5013788;28;20377;-79
2023/10/17 00:14:34;;;;;;;;;;;;;;;;;;5012509;28;20448;-78
2023/10/17 00:17:03;;;;;;;;;;;;;;;;;;5013420;28;20461;-77
2023/10/17 00:19:31;;;;;;;;;;;;;;;;;;5013351;28;19933;-77
2023/10/17 00:21:59;;;;;;;;;;;;;;;;;;5013407;28;20303;-78
2023/10/17 00:24:26;;;;;;;;;;;;;;;;;;5013012;28;19929;-78
2023/10/17 00:26:53;;;;;;;;;;;;;;;;;;5013185;28;19972;-78
2023/10/17 00:29:20;;;;;;;;;;;;;;;;;;5013024;28;20336;-78
2023/10/17 00:31:47;;;;;;;;;;;;;;;;;;5013669;28;19925;-78
2023/10/17 00:34:15;;;;;;;;;;;;;;;;;;5012589;28;20301;-77
2023/10/17 00:36:48;;;;;;;;;;;;;;;;;;5013407;28;19952;-77
2023/10/17 00:39:17;;;;;;;;;;;;;;;;;;5006077;28;19926;-78
2023/10/17 00:41:50;;;;;;;;;;;;;;;;;;5012673;28;19925;-76
2023/10/17 00:44:27;;;;;;;;;;;;;;;;;;5012498;28;19933;-77
2023/10/17 00:46:54;;;;;;;;;;;;;;;;;;5012726;28;19925;-77
2023/10/17 00:49:23;;;;;;;;;;;;;;;;;;5012317;28;19926;-76
2023/10/17 00:51:52;;;;;;;;;;;;;;;;;;5013428;28;19932;-78
2023/10/17 00:54:19;;;;;;;;;;;;;;;;;;5011901;28;19926;-79
2023/10/17 00:56:47;;;;;;;;;;;;;;;;;;5012575;28;19926;-80
2023/10/17 00:59:15;;;;;;;;;;;;;;;;;;5013753;28;20277;-79
2023/10/17 01:01:42;;;;;;;;;;;;;;;;;;5013149;28;19925;-76
2023/10/17 01:04:14;;;;;;;;;;;;;;;;;;5012162;28;19971;-77
2023/10/17 01:06:41;;;;;;;;;;;;;;;;;;5015354;28;19926;-77
2023/10/17 01:09:17;;;;;;;;;;;;;;;;;;5016317;28;19925;-77
2023/10/17 01:11:45;;;;;;;;;;;;;;;;;;5019953;28;19972;-77
2023/10/17 01:14:18;;;;;;;;;;;;;;;;;;5015997;28;19934;-78
2023/10/17 01:16:46;;;;;;;;;;;;;;;;;;5016528;28;19932;-77
2023/10/17 01:19:15;;;;;;;;;;;;;;;;;;5016382;28;19925;-77
2023/10/17 01:21:42;;;;;;;;;;;;;;;;;;5016126;28;20377;-76
2023/10/17 01:24:09;;;;;;;;;;;;;;;;;;5016311;28;19925;-76
2023/10/17 01:26:37;;;;;;;;;;;;;;;;;;5016788;28;19984;-76
2023/10/17 01:29:04;;;;;;;;;;;;;;;;;;5017240;28;19925;-77
2023/10/17 01:31:38;;;;;;;;;;;;;;;;;;5016780;28;20369;-76
2023/10/17 01:34:08;;;;;;;;;;;;;;;;;;5015159;28;19931;-75
2023/10/17 01:36:35;;;;;;;;;;;;;;;;;;5015268;28;19925;-75
2023/10/17 01:39:05;;;;;;;;;;;;;;;;;;5016382;28;20000;-76
2023/10/17 01:41:32;;;;;;;;;;;;;;;;;;5015230;28;19926;-75
2023/10/17 01:44:01;;;;;;;;;;;;;;;;;;5015234;28;19926;-76
2023/10/17 01:46:29;;;;;;;;;;;;;;;;;;5015698;28;19956;-76
2023/10/17 01:48:56;;;;;;;;;;;;;;;;;;5015496;28;19987;-76
2023/10/17 01:51:24;;;;;;;;;;;;;;;;;;5014794;28;19926;-76
2023/10/17 01:53:51;;;;;;;;;;;;;;;;;;5015776;28;19925;-76
2023/10/17 01:56:20;;;;;;;;;;;;;;;;;;5016073;28;19961;-77
2023/10/17 01:58:50;;;;;;;;;;;;;;;;;;5015882;28;19936;-76
2023/10/17 02:01:17;;;;;;;;;;;;;;;;;;5015280;28;19929;-76
2023/10/17 02:03:44;;;;;;;;;;;;;;;;;;5015838;28;19947;-76
2023/10/17 02:06:14;;;;;;;;;;;;;;;;;;5014830;28;19972;-76
2023/10/17 02:08:42;;;;;;;;;;;;;;;;;;5015176;28;20396;-76
2023/10/17 02:11:12;;;;;;;;;;;;;;;;;;5014936;28;19933;-77
2023/10/17 02:13:40;;;;;;;;;;;;;;;;;;5015811;28;19932;-75
2023/10/17 02:16:09;;;;;;;;;;;;;;;;;;5014950;28;20377;-77
2023/10/17 02:18:36;;;;;;;;;;;;;;;;;;5015405;28;19925;-76
2023/10/17 02:21:05;;;;;;;;;;;;;;;;;;5014578;28;19932;-76
2023/10/17 02:23:39;;;;;;;;;;;;;;;;;;5011770;28;19926;-76
2023/10/17 02:26:10;;;;;;;;;;;;;;;;;;5000416;28;19976;-77
2023/10/17 02:28:44;;;;;;;;;;;;;;;;;;5015366;28;19936;-77
2023/10/17 02:31:11;;;;;;;;;;;;;;;;;;5014654;28;19952;-76
2023/10/17 02:33:41;;;;;;;;;;;;;;;;;;5015011;28;19925;-76
2023/10/17 02:36:12;;;;;;;;;;;;;;;;;;5016796;28;19952;-75
2023/10/17 02:38:39;;;;;;;;;;;;;;;;;;5013893;28;20368;-77
2023/10/17 02:41:08;;;;;;;;;;;;;;;;;;5014069;28;19933;-77
2023/10/17 02:43:37;;;;;;;;;;;;;;;;;;5013914;28;19925;-75
2023/10/17 02:46:05;;;;;;;;;;;;;;;;;;5001584;28;19972;-74
2023/10/17 02:48:37;;;;;;;;;;;;;;;;;;5014653;28;19936;-75
2023/10/17 02:51:11;;;;;;;;;;;;;;;;;;5013249;28;20266;-76
2023/10/17 02:53:43;;;;;;;;;;;;;;;;;;5014177;28;19972;-75
2023/10/17 02:56:19;;;;;;;;;;;;;;;;;;5014013;28;19926;-76
2023/10/17 02:58:49;;;;;;;;;;;;;;;;;;5014140;28;19941;-76
2023/10/17 03:01:16;;;;;;;;;;;;;;;;;;5013789;28;19929;-75
2023/10/17 03:03:43;;;;;;;;;;;;;;;;;;5014392;28;19945;-76
2023/10/17 03:06:15;;;;;;;;;;;;;;;;;;5014046;28;20048;-76
2023/10/17 03:08:49;;;;;;;;;;;;;;;;;;5014654;28;19925;-76
2023/10/17 03:11:17;;;;;;;;;;;;;;;;;;5013060;28;19932;-76
2023/10/17 03:13:44;;;;;;;;;;;;;;;;;;5013633;28;19933;-75
2023/10/17 03:16:25;;;;;;;;;;;;;;;;;;5011994;28;20275;-75
2023/10/17 03:18:51;;;;;;;;;;;;;;;;;;5012906;28;20330;-75
2023/10/17 03:21:20;;;;;;;;;;;;;;;;;;5011582;28;19980;-75
2023/10/17 03:23:49;;;;;;;;;;;;;;;;;;5013392;28;19925;-76
2023/10/17 03:26:16;;;;;;;;;;;;;;;;;;5014121;28;19976;-77
2023/10/17 03:28:42;;;;;;;;;;;;;;;;;;5012442;28;19948;-77
2023/10/17 03:31:11;;;;;;;;;;;;;;;;;;5013407;28;19932;-76
2023/10/17 03:33:40;;;;;;;;;;;;;;;;;;5013327;28;19972;-76
2023/10/17 03:36:40;;;;;;;;;;;;;;;;;;5014679;28;19937;-77
2023/10/17 03:39:02;;;;;;;;;;;;;;;;;;5033161;28;20283;-77
2023/10/17 03:41:29;;;;;;;;;;;;;;;;;;5026099;28;20012;-76
2023/10/17 03:43:56;;;;;;;;;;;;;;;;;;5013769;28;19925;-76
2023/10/17 03:46:25;;;;;;;;;;;;;;;;;;5013599;28;19971;-76
2023/10/17 03:48:57;;;;;;;;;;;;;;;;;;5013396;28;19969;-77
2023/10/17 03:51:25;;;;;;;;;;;;;;;;;;5012229;28;19926;-76
2023/10/17 03:53:53;;;;;;;;;;;;;;;;;;5013435;28;19926;-76
2023/10/17 03:56:24;;;;;;;;;;;;;;;;;;5013475;28;19929;-76
2023/10/17 03:58:57;;;;;;;;;;;;;;;;;;5012606;28;19965;-78
2023/10/17 04:01:24;;;;;;;;;;;;;;;;;;5012159;28;20495;-77
2023/10/17 04:03:54;;;;;;;;;;;;;;;;;;5013548;28;20301;-77
2023/10/17 04:06:26;;;;;;;;;;;;;;;;;;5013323;28;19969;-77
2023/10/17 04:09:15;;;;;;;;;;;;;;;;;;5013555;28;19969;-77
2023/10/17 04:11:43;;;;;;;;;;;;;;;;;;5013241;28;19926;-78
2023/10/17 04:14:10;;;;;;;;;;;;;;;;;;5014058;28;20036;-78
2023/10/17 04:16:39;;;;;;;;;;;;;;;;;;5013965;28;19925;-78
2023/10/17 04:19:07;;;;;;;;;;;;;;;;;;5003848;28;19925;-76
2023/10/17 04:21:38;;;;;;;;;;;;;;;;;;5012182;28;19980;-77
2023/10/17 04:24:06;;;;;;;;;;;;;;;;;;5013198;28;19925;-77
2023/10/17 04:26:35;;;;;;;;;;;;;;;;;;5014782;28;19929;-77
2023/10/17 04:29:11;;;;;;;;;;;;;;;;;;5013489;28;19926;-75
2023/10/17 04:31:38;;;;;;;;;;;;;;;;;;5012443;28;19925;-75
2023/10/17 04:34:06;;;;;;;;;;;;;;;;;;5012673;28;19926;-75
2023/10/17 04:36:36;;;;;;;;;;;;;;;;;;5012963;28;20016;-72
2023/10/17 04:39:18;;;;;;;;;;;;;;;;;;5014102;28;19932;-75
2023/10/17 04:44:34;;;;;;;;;;;;;;;;;;5002249;28;19972;-75
2023/10/17 04:47:25;;;;;;;;;;;;;;;;;;5015605;28;19926;-75
2023/10/17 04:49:53;;;;;;;;;;;;;;;;;;5016944;28;19926;-76
2023/10/17 04:52:21;;;;;;;;;;;;;;;;;;5015930;28;19926;-75
2023/10/17 04:54:52;;;;;;;;;;;;;;;;;;5015680;28;19926;-75
2023/10/17 04:57:19;;;;;;;;;;;;;;;;;;5014022;28;19925;-76
2023/10/17 04:59:55;;;;;;;;;;;;;;;;;;5007264;28;19936;-77
2023/10/17 05:02:36;;;;;;;;;;;;;;;;;;5010718;28;19933;-77
2023/10/17 05:08:11;;;;;;;;;;;;;;;;;;4999863;28;20187;-76
2023/10/17 06:16:52;;;;;;;;;;;;;;;;;;5010002;28;19921;-72
2023/10/17 06:19:22;;;;;;;;;;;;;;;;;;5009336;28;19932;-72
2023/10/17 06:24:46;;;;;;;;;;;;;;;;;;5007390;28;19926;-71
2023/10/17 06:27:43;;;;;;;;;;;;;;;;;;5008440;28;20357;-70
2023/10/17 06:33:03;;;;;;;;;;;;;;;;;;5011406;28;19920;-73
2023/10/17 06:35:31;;;;;;;;;;;;;;;;;;5005443;28;19926;-72
2023/10/17 06:37:58;;;;;;;;;;;;;;;;;;5013547;28;19937;-72
2023/10/17 06:40:30;;;;;;;;;;;;;;;;;;5007637;28;19925;-74
2023/10/17 06:42:59;;;;;;;;;;;;;;;;;;5010466;28;19972;-73
2023/10/17 06:45:26;;;;;;;;;;;;;;;;;;5007916;28;20377;-74
2023/10/17 06:47:58;;;;;;;;;;;;;;;;;;5010785;28;19925;-73
2023/10/17 06:53:15;;;;;;;;;;;;;;;;;;5007605;28;19948;-75
2023/10/17 06:55:44;;;;;;;;;;;;;;;;;;5011711;28;19967;-74
2023/10/17 06:58:11;;;;;;;;;;;;;;;;;;5010533;28;19932;-73
2023/10/17 07:03:24;;;;;;;;;;;;;;;;;;5001717;28;19952;-74
2023/10/17 07:05:52;;;;;;;;;;;;;;;;;;5009997;28;19926;-73
2023/10/17 07:08:20;;;;;;;;;;;;;;;;;;5009058;28;19925;-73
2023/10/17 07:10:59;;;;;;;;;;;;;;;;;;5010679;28;19968;-74
2023/10/17 07:13:26;;;;;;;;;;;;;;;;;;5012176;28;19930;-74
2023/10/17 07:15:54;;;;;;;;;;;;;;;;;;5012849;28;19925;-73
2023/10/17 07:21:17;;;;;;;;;;;;;;;;;;5006872;28;20011;-73
2023/10/17 07:23:45;;;;;;;;;;;;;;;;;;5006744;28;19933;-74
2023/10/17 07:26:17;;;;;;;;;;;;;;;;;;5010813;28;19925;-75
2023/10/17 07:28:44;;;;;;;;;;;;;;;;;;5011579;28;20056;-74
2023/10/17 07:31:12;;;;;;;;;;;;;;;;;;5012075;28;19980;-74
2023/10/17 07:33:39;;;;;;;;;;;;;;;;;;5011614;28;20446;-74
2023/10/17 07:36:06;;;;;;;;;;;;;;;;;;5010672;28;20024;-73
2023/10/17 07:38:33;;;;;;;;;;;;;;;;;;5009026;28;19925;-74
2023/10/17 07:41:09;;;;;;;;;;;;;;;;;;5012521;28;19926;-73
2023/10/17 07:43:36;;;;;;;;;;;;;;;;;;5011689;28;19933;-73
2023/10/17 07:46:07;;;;;;;;;;;;;;;;;;5011888;28;19971;-73
2023/10/17 07:48:35;;;;;;;;;;;;;;;;;;5010787;28;20411;-73
2023/10/17 08:02:54;;;;;;;;;;;;;;;;;;5060599;28;19923;-74
2023/10/17 08:05:23;;;;;;;;;;;;;;;;;;5067699;28;20402;-74
2023/10/17 08:07:51;;;;;;;;;;;;;;;;;;5065952;28;19933;-73
2023/10/17 08:10:29;;;;;;;;;;;;;;;;;;5056787;28;19932;-73
2023/10/17 08:12:57;;;;;;;;;;;;;;;;;;5058194;28;19925;-72
2023/10/17 08:15:30;;;;;;;;;;;;;;;;;;5058065;28;20123;-72
2023/10/17 08:17:59;;;;;;;;;;;;;;;;;;5055438;28;19925;-71
2023/10/17 08:23:11;;;;;;;;;;;;;;;;;;5054717;28;20368;-72
2023/10/17 08:25:52;;;;;;;;;;;;;;;;;;5058006;28;20423;-71
2023/10/17 08:28:33;;;;;;;;;;;;;;;;;;5057397;28;19924;-71
2023/10/17 08:30:59;;;;;;;;;;;;;;;;;;5064749;28;19932;-72
2023/10/17 08:33:36;;;;;;;;;;;;;;;;;;5050387;28;19925;-72
2023/10/17 08:36:03;;;;;;;;;;;;;;;;;;5058793;28;20019;-71
2023/10/17 08:38:32;;;;;;;;;;;;;;;;;;5062116;28;19932;-72
2023/10/17 08:40:59;;;;;;;;;;;;;;;;;;5056130;28;19975;-72
2023/10/17 08:43:31;;;;;;;;;;;;;;;;;;5063104;28;19971;-72
2023/10/17 08:45:59;;;;;;;;;;;;;;;;;;5050238;28;20010;-71
2023/10/17 08:48:26;;;;;;;;;;;;;;;;;;5053207;28;20438;-71
2023/10/17 08:50:54;;;;;;;;;;;;;;;;;;5054623;28;19928;-70
2023/10/17 08:53:21;;;;;;;;;;;;;;;;;;5054961;28;19959;-71
2023/10/17 08:55:50;;;;;;;;;;;;;;;;;;5057617;28;20408;-70
2023/10/17 08:58:24;;;;;;;;;;;;;;;;;;5059662;28;19924;-71
2023/10/17 09:00:55;;;;;;;;;;;;;;;;;;5058656;28;20357;-72
2023/10/17 09:03:23;;;;;;;;;;;;;;;;;;5045645;28;19925;-72
2023/10/17 09:05:50;;;;;;;;;;;;;;;;;;5038625;28;20016;-72
2023/10/17 09:08:21;;;;;;;;;;;;;;;;;;5039821;28;19947;-71
2023/10/17 09:10:51;;;;;;;;;;;;;;;;;;5040273;28;19925;-72
2023/10/17 09:16:08;;;;;;;;;;;;;;;;;;5042640;28;20048;-70
2023/10/17 09:18:40;;;;;;;;;;;;;;;;;;5037407;28;19925;-73
2023/10/17 09:21:08;;;;;;;;;;;;;;;;;;5039920;28;19931;-72
2023/10/17 09:23:38;;;;;;;;;;;;;;;;;;5038507;28;19960;-73
2023/10/17 09:26:10;;;;;;;;;;;;;;;;;;5039542;28;20067;-72
2023/10/17 09:28:37;;;;;;;;;;;;;;;;;;5046557;28;20407;-72
2023/10/17 09:31:06;;;;;;;;;;;;;;;;;;5044741;28;19929;-72
2023/10/17 09:33:33;;;;;;;;;;;;;;;;;;5043905;28;19924;-72
2023/10/17 09:36:02;;;;;;;;;;;;;;;;;;5051068;28;19994;-72
2023/10/17 09:38:29;;;;;;;;;;;;;;;;;;5039638;28;19945;-73
2023/10/17 09:40:57;;;;;;;;;;;;;;;;;;5047474;28;19987;-72
2023/10/17 09:43:24;;;;;;;;;;;;;;;;;;5045484;28;19925;-72
2023/10/17 09:45:52;;;;;;;;;;;;;;;;;;5043872;28;19924;-73
2023/10/17 09:48:19;;;;;;;;;;;;;;;;;;5046019;28;19925;-73
2023/10/17 09:50:46;;;;;;;;;;;;;;;;;;5042084;28;19929;-72
2023/10/17 09:53:13;;;;;;;;;;;;;;;;;;5039693;28;20011;-73
2023/10/17 09:55:40;;;;;;;;;;;;;;;;;;5030985;28;19963;-73
2023/10/17 09:58:10;;;;;;;;;;;;;;;;;;5045187;28;20345;-74
2023/10/17 10:00:37;;;;;;;;;;;;;;;;;;5039076;28;19929;-72
2023/10/17 10:03:04;;;;;;;;;;;;;;;;;;5036687;28;19925;-74
2023/10/17 10:05:32;;;;;;;;;;;;;;;;;;5036384;28;20023;-75
2023/10/17 10:07:59;;;;;;;;;;;;;;;;;;5045070;28;19932;-74
2023/10/17 10:10:27;;;;;;;;;;;;;;;;;;5039783;28;19986;-74
2023/10/17 10:12:54;;;;;;;;;;;;;;;;;;5044774;28;20412;-75
2023/10/17 10:15:21;;;;;;;;;;;;;;;;;;5037135;28;20597;-74
2023/10/17 10:17:50;;;;;;;;;;;;;;;;;;5045881;28;19925;-75
2023/10/17 10:20:17;;;;;;;;;;;;;;;;;;5051267;28;19924;-75
2023/10/17 10:22:45;;;;;;;;;;;;;;;;;;5045518;28;19983;-75
2023/10/17 10:25:12;;;;;;;;;;;;;;;;;;5050482;28;20035;-75
2023/10/17 10:27:39;;;;;;;;;;;;;;;;;;5047714;28;19929;-75
2023/10/17 10:30:07;;;;;;;;;;;;;;;;;;5048621;28;20343;-75
2023/10/17 10:32:34;;;;;;;;;;;;;;;;;;5046510;28;19971;-75
2023/10/17 10:35:01;;;;;;;;;;;;;;;;;;5044091;28;19925;-75
2023/10/17 10:37:29;;;;;;;;;;;;;;;;;;5039514;28;20002;-74
2023/10/17 10:39:56;;;;;;;;;;;;;;;;;;5046050;28;19925;-75
2023/10/17 10:42:24;;;;;;;;;;;;;;;;;;5038092;28;19978;-75
2023/10/17 10:44:51;;;;;;;;;;;;;;;;;;5046927;28;19932;-74
2023/10/17 10:47:18;;;;;;;;;;;;;;;;;;5043559;28;19928;-74
2023/10/17 10:49:49;;;;;;;;;;;;;;;;;;5039591;28;20400;-73
2023/10/17 10:52:18;;;;;;;;;;;;;;;;;;5047621;28;19929;-75
2023/10/17 10:54:45;;;;;;;;;;;;;;;;;;5041504;28;20403;-75
2023/10/17 10:57:12;;;;;;;;;;;;;;;;;;5035767;28;20336;-75
2023/10/17 10:59:40;;;;;;;;;;;;;;;;;;5050190;28;19986;-75
2023/10/17 11:02:07;;;;;;;;;;;;;;;;;;5043186;28;19924;-75
2023/10/17 11:04:34;;;;;;;;;;;;;;;;;;5048373;28;19971;-74
2023/10/17 11:07:02;;;;;;;;;;;;;;;;;;5036350;28;19925;-74
2023/10/17 11:09:29;;;;;;;;;;;;;;;;;;5038205;28;19979;-74
2023/10/17 11:11:56;;;;;;;;;;;;;;;;;;5028749;28;20286;-74
2023/10/17 11:14:23;;;;;;;;;;;;;;;;;;5030055;28;19983;-73
2023/10/17 11:16:51;;;;;;;;;;;;;;;;;;5032994;28;19937;-73
2023/10/17 11:19:21;;;;;;;;;;;;;;;;;;5033345;28;19924;-72
2023/10/17 11:21:48;;;;;;;;;;;;;;;;;;5032220;28;20007;-73
2023/10/17 11:24:17;;;;;;;;;;;;;;;;;;5040416;28;19933;-73
2023/10/17 11:26:44;;;;;;;;;;;;;;;;;;5036043;28;19929;-74
2023/10/17 11:29:11;;;;;;;;;;;;;;;;;;5043240;28;19940;-74
2023/10/17 11:31:41;;;;;;;;;;;;;;;;;;5039944;28;20459;-73
2023/10/17 11:34:12;;;;;;;;;;;;;;;;;;5040440;28;19990;-76
2023/10/17 11:36:45;;;;;;;;;;;;;;;;;;5035162;28;19929;-72
2023/10/17 11:39:15;;;;;;;;;;;;;;;;;;5035956;28;19932;-73
2023/10/17 11:41:42;;;;;;;;;;;;;;;;;;5037977;28;19925;-74
2023/10/17 11:44:09;;;;;;;;;;;;;;;;;;5041763;28;19968;-73
2023/10/17 11:46:37;;;;;;;;;;;;;;;;;;5046767;28;20285;-73
2023/10/17 11:49:04;;;;;;;;;;;;;;;;;;5042276;28;20268;-74
2023/10/17 11:51:33;;;;;;;;;;;;;;;;;;5031683;28;20016;-74
2023/10/17 11:54:00;;;;;;;;;;;;;;;;;;5038401;28;19924;-73
2023/10/17 11:56:27;;;;;;;;;;;;;;;;;;5041967;28;19929;-74
2023/10/17 11:58:56;;;;;;;;;;;;;;;;;;5033692;28;19925;-74
2023/10/17 12:01:23;;;;;;;;;;;;;;;;;;5051489;28;20210;-74
2023/10/17 12:03:50;;;;;;;;;;;;;;;;;;5050717;28;19932;-73
2023/10/17 12:06:17;;;;;;;;;;;;;;;;;;5044482;28;20396;-74
2023/10/17 12:08:44;;;;;;;;;;;;;;;;;;5031509;28;19964;-73
2023/10/17 12:11:11;;;;;;;;;;;;;;;;;;5049202;28;19929;-73
2023/10/17 12:13:38;;;;;;;;;;;;;;;;;;5042769;28;20446;-73
2023/10/17 12:16:08;;;;;;;;;;;;;;;;;;5039349;28;19961;-74
2023/10/17 12:18:35;;;;;;;;;;;;;;;;;;5040314;28;19925;-74
2023/10/17 12:21:04;;;;;;;;;;;;;;;;;;5046390;28;19948;-73
2023/10/17 12:23:31;;;;;;;;;;;;;;;;;;5041200;28;20007;-73
2023/10/17 12:25:58;;;;;;;;;;;;;;;;;;5043636;28;19979;-73
2023/10/17 12:28:26;;;;;;;;;;;;;;;;;;5047850;28;20039;-72
2023/10/17 12:30:53;;;;;;;;;;;;;;;;;;5043270;28;19925;-73
2023/10/17 12:33:23;;;;;;;;;;;;;;;;;;5049871;28;19960;-73
2023/10/17 12:35:51;;;;;;;;;;;;;;;;;;5034509;28;19925;-73
2023/10/17 12:38:25;;;;;;;;;;;;;;;;;;5044127;28;19971;-73
2023/10/17 12:40:53;;;;;;;;;;;;;;;;;;5053740;28;19968;-73
2023/10/17 12:43:21;;;;;;;;;;;;;;;;;;5045422;28;19925;-73
2023/10/17 12:45:48;;;;;;;;;;;;;;;;;;5054364;28;20446;-73
2023/10/17 12:48:15;;;;;;;;;;;;;;;;;;5045171;28;19932;-74
2023/10/17 12:50:44;;;;;;;;;;;;;;;;;;5053706;28;19925;-72
2023/10/17 12:53:11;;;;;;;;;;;;;;;;;;5054451;28;19995;-73
2023/10/17 12:55:39;;;;;;;;;;;;;;;;;;5054162;28;20012;-73
2023/10/17 12:58:07;;;;;;;;;;;;;;;;;;5041082;28;19925;-72
2023/10/17 13:00:34;;;;;;;;;;;;;;;;;;5052596;28;20364;-71
2023/10/17 13:03:01;;;;;;;;;;;;;;;;;;5054671;28;19924;-72
2023/10/17 13:05:28;;;;;;;;;;;;;;;;;;5052634;28;19937;-72
2023/10/17 13:07:56;;;;;;;;;;;;;;;;;;5035321;28;20008;-73
2023/10/17 13:10:23;;;;;;;;;;;;;;;;;;5045453;28;20412;-73
2023/10/17 13:12:49;;;;;;;;;;;;;;;;;;5037873;28;19929;-73
2023/10/17 13:15:16;;;;;;;;;;;;;;;;;;5034603;28;19983;-73
2023/10/17 13:17:44;;;;;;;;;;;;;;;;;;5045724;28;20009;-72
2023/10/17 13:20:13;;;;;;;;;;;;;;;;;;5052294;28;19968;-72
2023/10/17 13:22:46;;;;;;;;;;;;;;;;;;5035560;28;20447;-72
2023/10/17 13:25:13;;;;;;;;;;;;;;;;;;5049191;28;19925;-72
2023/10/17 13:27:41;;;;;;;;;;;;;;;;;;5049223;28;19939;-74
2023/10/17 13:30:08;;;;;;;;;;;;;;;;;;5050957;28;20303;-73
2023/10/17 13:32:35;;;;;;;;;;;;;;;;;;5050577;28;19968;-72
2023/10/17 13:35:02;;;;;;;;;;;;;;;;;;5049812;28;19933;-73
2023/10/17 13:37:29;;;;;;;;;;;;;;;;;;5044992;28;20449;-74
2023/10/17 13:39:56;;;;;;;;;;;;;;;;;;5045321;28;19975;-73
2023/10/17 13:42:23;;;;;;;;;;;;;;;;;;5045969;28;19925;-73
2023/10/17 13:44:51;;;;;;;;;;;;;;;;;;5050133;28;19955;-74
2023/10/17 13:47:18;;;;;;;;;;;;;;;;;;5033146;28;19968;-73
2023/10/17 13:49:45;;;;;;;;;;;;;;;;;;5052049;28;19979;-73
2023/10/17 13:52:17;;;;;;;;;;;;;;;;;;5047890;28;19925;-74
2023/10/17 13:54:44;;;;;;;;;;;;;;;;;;5051194;28;19925;-73
2023/10/17 13:57:12;;;;;;;;;;;;;;;;;;5045202;28;20030;-74
2023/10/17 13:59:39;;;;;;;;;;;;;;;;;;5036260;28;20306;-74
2023/10/17 14:02:06;;;;;;;;;;;;;;;;;;5048355;28;20332;-73
2023/10/17 14:04:35;;;;;;;;;;;;;;;;;;5038455;28;20345;-72
2023/10/17 14:07:04;;;;;;;;;;;;;;;;;;5040617;28;19925;-72
2023/10/17 14:09:31;;;;;;;;;;;;;;;;;;5052416;28;19929;-74
2023/10/17 14:11:58;;;;;;;;;;;;;;;;;;5039804;28;19947;-75
2023/10/17 14:14:25;;;;;;;;;;;;;;;;;;5040484;28;20477;-74
2023/10/17 14:16:55;;;;;;;;;;;;;;;;;;5032328;28;19925;-72
2023/10/17 14:19:36;;;;;;;;;;;;;;;;;;5032918;28;19925;-74
2023/10/17 14:22:08;;;;;;;;;;;;;;;;;;5041055;28;19924;-71
2023/10/17 14:27:17;;;;;;;;;;;;;;;;;;5038055;28;20384;-74
2023/10/17 14:29:46;;;;;;;;;;;;;;;;;;5035420;28;19933;-74
2023/10/17 14:32:14;;;;;;;;;;;;;;;;;;5036288;28;20338;-75
2023/10/17 14:34:41;;;;;;;;;;;;;;;;;;5038554;28;19933;-75
2023/10/17 14:37:08;;;;;;;;;;;;;;;;;;5041576;28;19966;-74
2023/10/17 14:39:36;;;;;;;;;;;;;;;;;;5044914;28;19931;-74
2023/10/17 14:42:03;;;;;;;;;;;;;;;;;;5033071;28;19929;-73
2023/10/17 14:44:30;;;;;;;;;;;;;;;;;;5037388;28;19929;-74
2023/10/17 14:46:58;;;;;;;;;;;;;;;;;;5039708;28;20051;-75
2023/10/17 14:49:26;;;;;;;;;;;;;;;;;;5038633;28;19964;-74
2023/10/17 14:51:53;;;;;;;;;;;;;;;;;;5037760;28;19929;-74
2023/10/17 14:54:23;;;;;;;;;;;;;;;;;;5044057;28;20019;-74
2023/10/17 14:56:51;;;;;;;;;;;;;;;;;;5038933;28;19929;-74
2023/10/17 14:59:19;;;;;;;;;;;;;;;;;;5040042;28;19973;-74
2023/10/17 15:01:47;;;;;;;;;;;;;;;;;;5041742;28;19929;-74
2023/10/17 15:04:14;;;;;;;;;;;;;;;;;;5046108;28;20343;-74
2023/10/17 15:06:41;;;;;;;;;;;;;;;;;;5042851;28;19925;-74
2023/10/17 15:09:08;;;;;;;;;;;;;;;;;;5048989;28;19979;-74
2023/10/17 15:11:35;;;;;;;;;;;;;;;;;;5038617;28;19926;-74
2023/10/17 15:14:04;;;;;;;;;;;;;;;;;;5037585;28;20428;-74
2023/10/17 15:16:31;;;;;;;;;;;;;;;;;;5040150;28;19968;-73
2023/10/17 15:18:59;;;;;;;;;;;;;;;;;;5041961;28;19936;-72
2023/10/17 15:21:26;;;;;;;;;;;;;;;;;;5044614;28;19928;-71
2023/10/17 15:23:53;;;;;;;;;;;;;;;;;;5037117;28;19928;-73
2023/10/17 15:26:21;;;;;;;;;;;;;;;;;;5040248;28;19959;-71
2023/10/17 15:28:49;;;;;;;;;;;;;;;;;;5041751;28;19932;-72
2023/10/17 15:31:16;;;;;;;;;;;;;;;;;;5038175;28;20324;-72
2023/10/17 15:33:44;;;;;;;;;;;;;;;;;;5044375;28;19929;-72
2023/10/17 15:36:11;;;;;;;;;;;;;;;;;;5040530;28;19935;-72
2023/10/17 15:38:40;;;;;;;;;;;;;;;;;;5035553;28;20003;-72
2023/10/17 15:41:08;;;;;;;;;;;;;;;;;;5043323;28;20397;-73
2023/10/17 15:43:35;;;;;;;;;;;;;;;;;;5042744;28;19929;-73
2023/10/17 15:46:03;;;;;;;;;;;;;;;;;;5044781;28;20262;-73
2023/10/17 15:48:31;;;;;;;;;;;;;;;;;;5044044;28;19954;-70
2023/10/17 15:51:00;;;;;;;;;;;;;;;;;;5043974;28;19937;-78
2023/10/17 15:53:27;;;;;;;;;;;;;;;;;;5042906;28;19933;-75
2023/10/17 15:55:54;;;;;;;;;;;;;;;;;;5038122;28;19932;-74
2023/10/17 15:58:21;;;;;;;;;;;;;;;;;;5042223;28;20301;-75
2023/10/17 16:00:48;;;;;;;;;;;;;;;;;;5040615;28;19978;-74
2023/10/17 16:03:15;;;;;;;;;;;;;;;;;;5038373;28;19962;-75
2023/10/17 16:05:42;;;;;;;;;;;;;;;;;;5041108;28;19929;-75
2023/10/17 16:08:10;;;;;;;;;;;;;;;;;;5041384;28;19925;-75
2023/10/17 16:10:38;;;;;;;;;;;;;;;;;;5048838;28;20303;-76
2023/10/17 16:13:07;;;;;;;;;;;;;;;;;;5043415;28;19925;-75
2023/10/17 16:15:35;;;;;;;;;;;;;;;;;;5049722;28;19932;-75
2023/10/17 16:18:02;;;;;;;;;;;;;;;;;;5045584;28;20385;-75
2023/10/17 16:20:30;;;;;;;;;;;;;;;;;;5047769;28;19933;-75
2023/10/17 16:22:58;;;;;;;;;;;;;;;;;;5043661;28;19929;-75
2023/10/17 16:25:25;;;;;;;;;;;;;;;;;;5042192;28;19933;-77
2023/10/17 16:27:52;;;;;;;;;;;;;;;;;;5047528;28;20300;-75
2023/10/17 16:30:20;;;;;;;;;;;;;;;;;;5042803;28;20377;-74
2023/10/17 16:32:47;;;;;;;;;;;;;;;;;;5044799;28;19929;-75
2023/10/17 16:35:16;;;;;;;;;;;;;;;;;;5044818;28;20800;-75
2023/10/17 16:37:43;;;;;;;;;;;;;;;;;;5038941;28;19975;-76
2023/10/17 16:40:11;;;;;;;;;;;;;;;;;;5047097;28;19951;-75
2023/10/17 16:42:38;;;;;;;;;;;;;;;;;;5046298;28;19998;-75
2023/10/17 16:45:05;;;;;;;;;;;;;;;;;;5046484;28;20033;-75
2023/10/17 16:47:32;;;;;;;;;;;;;;;;;;5054648;28;19971;-75
2023/10/17 16:50:00;;;;;;;;;;;;;;;;;;5055076;28;20281;-75
2023/10/17 16:52:27;;;;;;;;;;;;;;;;;;5051309;28;20289;-74
2023/10/17 16:54:54;;;;;;;;;;;;;;;;;;5052405;28;19924;-75
2023/10/17 16:57:21;;;;;;;;;;;;;;;;;;5037432;28;19924;-74
2023/10/17 16:59:49;;;;;;;;;;;;;;;;;;5045315;28;19924;-74
2023/10/17 17:02:16;;;;;;;;;;;;;;;;;;5046374;28;20006;-75
2023/10/17 17:04:43;;;;;;;;;;;;;;;;;;5046026;28;19972;-75
2023/10/17 17:07:10;;;;;;;;;;;;;;;;;;5043243;28;20320;-75
2023/10/17 17:09:38;;;;;;;;;;;;;;;;;;5044631;28;19941;-74
2023/10/17 17:12:06;;;;;;;;;;;;;;;;;;5044722;28;20439;-74
2023/10/17 17:14:33;;;;;;;;;;;;;;;;;;5042027;28;20291;-75
2023/10/17 17:17:00;;;;;;;;;;;;;;;;;;5040993;28;19947;-74
2023/10/17 17:19:28;;;;;;;;;;;;;;;;;;5043956;28;19932;-75
2023/10/17 17:21:56;;;;;;;;;;;;;;;;;;5041209;28;19971;-74
2023/10/17 17:24:23;;;;;;;;;;;;;;;;;;5040438;28;19936;-74
2023/10/17 17:26:53;;;;;;;;;;;;;;;;;;5041459;28;19991;-75
2023/10/17 17:29:20;;;;;;;;;;;;;;;;;;5039279;28;19929;-75
2023/10/17 17:31:47;;;;;;;;;;;;;;;;;;5040848;28;19929;-75
2023/10/17 17:34:14;;;;;;;;;;;;;;;;;;5040971;28;19979;-75
2023/10/17 17:36:41;;;;;;;;;;;;;;;;;;5045838;28;19925;-75
2023/10/17 17:39:08;;;;;;;;;;;;;;;;;;5044235;28;19955;-76
2023/10/17 17:41:37;;;;;;;;;;;;;;;;;;5047741;28;19932;-75
2023/10/17 17:44:04;;;;;;;;;;;;;;;;;;5045380;28;19925;-75
2023/10/17 17:46:33;;;;;;;;;;;;;;;;;;5038477;28;19925;-74
2023/10/17 17:49:00;;;;;;;;;;;;;;;;;;5032731;28;20408;-76
2023/10/17 17:51:27;;;;;;;;;;;;;;;;;;5042117;28;19932;-75
2023/10/17 17:53:55;;;;;;;;;;;;;;;;;;5044456;28;19936;-75
2023/10/17 17:56:22;;;;;;;;;;;;;;;;;;5040149;28;19987;-76
2023/10/17 17:58:51;;;;;;;;;;;;;;;;;;5042982;28;19990;-74
2023/10/17 18:01:19;;;;;;;;;;;;;;;;;;5047968;28;19931;-75
2023/10/17 18:03:46;;;;;;;;;;;;;;;;;;5045857;28;19968;-75
2023/10/17 18:06:16;;;;;;;;;;;;;;;;;;5051529;28;19925;-74
2023/10/17 18:08:44;;;;;;;;;;;;;;;;;;5036678;28;20780;-75
2023/10/17 18:11:11;;;;;;;;;;;;;;;;;;5039380;28;20014;-74
2023/10/17 18:13:38;;;;;;;;;;;;;;;;;;5046106;28;19932;-74
2023/10/17 18:16:05;;;;;;;;;;;;;;;;;;5043497;28;19979;-76
2023/10/17 18:18:34;;;;;;;;;;;;;;;;;;5051502;28;20282;-74
2023/10/17 18:21:01;;;;;;;;;;;;;;;;;;5041976;28;19985;-75
2023/10/17 18:23:30;;;;;;;;;;;;;;;;;;5037112;28;19943;-74
2023/10/17 18:25:58;;;;;;;;;;;;;;;;;;5031970;28;20016;-75
2023/10/17 18:28:26;;;;;;;;;;;;;;;;;;5032729;28;19925;-75
2023/10/17 18:30:53;;;;;;;;;;;;;;;;;;5047055;28;19951;-75
2023/10/17 18:33:20;;;;;;;;;;;;;;;;;;5049226;28;20404;-76
2023/10/17 18:35:47;;;;;;;;;;;;;;;;;;5039155;28;20400;-75
2023/10/17 18:38:15;;;;;;;;;;;;;;;;;;5049504;28;19932;-74
2023/10/17 18:40:43;;;;;;;;;;;;;;;;;;5046842;28;19925;-74
2023/10/17 18:43:10;;;;;;;;;;;;;;;;;;5040967;28;19990;-76
2023/10/17 18:45:38;;;;;;;;;;;;;;;;;;5045694;28;20015;-75